Preview of NWS' New Version of Forecast
This preview is not operational and should not be used for support decisions.
Latest weather observations around

LOS GATOS (LSGC1)

Using International System of Units (Switch to English Units)
Date/ Time (PDT) Wind (kph) Vis. (km) Weather Sky Cond. Temp (°C) Rel. Humidity Wind Chill (°C) Heat Index (°C) Pressure Precip. (cm)
Air Dwpt 6 hour Altimeter (hPa) Sea level (hPa) 1 hr 3 hr 6 hr
Max Min
Aug 25 11:32 SSE 5   Clear   32 15     37%   31          
Aug 25 10:32 SSE 3   Clear   29 15     44%   29          
Aug 25 09:32 S 2   Clear   29 12     34%   29          
Aug 25 08:32 SSE 5   Clear   27 8     31%   26          
Aug 25 07:32 Calm   Clear   23 7     35%   23          
Aug 25 06:32 NNE 5   Clear   22        %              
Aug 25 05:32 NE 3   Clear   23 8     40%   22          
Aug 25 04:32 NNW 3   Clear   22 9     42%   22          
Aug 25 03:32 NNE 5   Clear   22 10     46%   21          
Aug 25 02:32 SSE 3   Clear   22 5     32%   21          
Aug 25 01:32 S 6   Clear   23 2     26%   22          
Aug 25 00:32 SSE 13   Clear   22        %              
Aug 24 23:32 SSE 11   Clear   22 5     33%   21          
Aug 24 22:32 SSE 13   Clear   23 8     39%   22          
Aug 24 21:32 SSE 13   Clear   23 11     46%   23          
Aug 24 20:32 SSE 3   Clear   21 15     67%              
Aug 24 19:32 S 11   Clear   23 15     61%   23          
Aug 24 18:32 NW 3   Clear   26 16     53%   26          
Aug 24 17:32 NNW 3   Clear   29 16     45%   30          
Aug 24 16:32 NNW 5   Clear   29 16     47%   29          
Aug 24 15:32 N 6   Clear   29 16     47%   29          
Aug 24 14:32 N 8   Clear   29 16     47%   29          
Aug 24 13:32 N 8   Clear   29 16     43%   29          
Aug 24 12:32 N 6   Clear   29 15     43%   29          
Aug 24 11:32 NE 5   Clear   29 15     43%   29          
Aug 24 10:32 E 5   Clear   27 15     48%   27          
Aug 24 09:32 SSE 6   Clear   26 12     43%   25          
Aug 24 08:32 S 10   Clear   23 11     46%   23          
Aug 24 07:32 S 11   Clear   21 10     48%              
Aug 24 06:32 S 16   Clear   21 9     46%              
Aug 24 05:32 S 8   Clear   19 10     54%              
Aug 24 04:32 S 10   Clear   19 9     51%              
Aug 24 03:32 S 8   Clear   19 7     44%              
Aug 24 02:32 S 11   Clear   21        %              
Aug 24 01:32 S 10   Clear   19 7     47%              
Aug 24 00:32 SW 2   Clear   19 9     53%              
Aug 23 23:32 N 5   Clear   18 10     61%              
Aug 23 22:32 NW 2   Clear   18 11     63%              
Aug 23 21:32 N 3   Clear   18        %              
Aug 23 20:32 N 3   Clear   19 13     67%              
Aug 23 19:32 S 8   Clear   19 12     66%              
Aug 23 18:32 S 14   Clear   21 13     59%              
Aug 23 17:32 S 18   Clear   22 13     57%   21          
Aug 23 16:32 S 18   Clear   23 14     55%   23          
Aug 23 15:32 S 13   Clear   26 14     48%   26          
Aug 23 14:32 S 18   Clear   27 15     47%   27          
Aug 23 13:32 SSW 10   Clear   31 15     39%   31          
Aug 23 12:32 N 6   Clear   29 16     43%   29          
Aug 23 11:32 S 8   Clear   26 15     51%   25          
Aug 23 10:32 SSE 8   Clear   24 14     55%   24          
Aug 23 09:32 S 14   Clear   23 14     59%   23          
Aug 23 08:32 S 8   Clear   22 15     64%   22          
Aug 23 07:32 WSW 3   Clear   21 14     68%              
Aug 23 06:32 SSE 2   Clear   21 14     68%              
Aug 23 05:32 SSE 6   Clear   22 15     65%   22          
Aug 23 04:32 SSE 3   Clear   23 14     58%   23          
Aug 23 03:32 S 6   Clear   23 13     52%   23          
Aug 23 02:32 Calm   Clear   23 13     53%   23          
Aug 23 01:32 S 6   Clear   22 13     57%   22          
Aug 23 00:32 SW 2   Clear   22 13     58%   21          
Aug 22 23:32 SSW 2   Clear   22 14     62%   22          
Aug 22 22:32 S 3   Clear   21 15     69%              
Aug 22 21:32 N 2   Clear   23 16     65%   23          
Aug 22 20:32 NNE 3   Clear   23 16     62%   23          
Aug 22 19:32 NNE 6   Clear   23 16     63%   23          
Aug 22 18:32 N 10   Clear   27 16     52%   27          
Aug 22 17:32 N 6   Clear   30 16     44%   30          
Aug 22 16:32 N 10   Clear   31 16     42%   31          
Aug 22 15:32 N 8   Clear   31 17     44%   32          
Aug 22 14:32 NNW 8   Clear   31 18     45%   32          
Aug 22 13:32 N 8   Clear   30 17     46%   30          
Aug 22 12:32 NW 8   Clear   28 18     52%   29          
Aug 22 11:32 WNW 6   Clear   26 17     59%   26          
May 14 18:32 N 10   Clear   16 9     67%              
Notice The following observation data may not be complete
May 14 10:32 SSW 6   Clear     9      %              
May 13 14:32     Clear   14 8     66%              
May 12 16:32     Clear   17 7     52%              
May 12 12:32 S 21   Clear   16 8     61%              
May 12 02:32 N 11   Clear   15 1     38%              
May 11 09:32 N 11   Clear   18 5     44%              
Jun 12 03:32 NNE 6   Clear   8 7     94% 7            
Jun 11 23:32 SSE 8   Clear   8 6     91% 6            
Jun 11 15:32 SW 8   Clear   16 5     47%              
Jun 11 06:32 WNW 5   Clear   8 5     82% 8            
Jun 11 01:32 N 10   Clear   7 5     88% 5            
Jun 08 16:32 SSW 13   Clear   15 13     90%              
Jun 08 01:32     Clear   13 -2     34%              
Jun 07 19:32 N 3   Clear   16 11     72%